createdAt,value
2022-12-09T00:00:33.043Z,67.20
2022-12-09T00:03:00.435Z,70.05
2022-12-09T00:05:27.672Z,69.18
2022-12-09T00:07:55.156Z,69.22
2022-12-09T00:10:22.387Z,76.05
2022-12-09T00:12:49.642Z,67.88
2022-12-09T00:15:16.936Z,64.18
2022-12-09T00:17:44.241Z,68.97
2022-12-09T00:20:12.111Z,67.03
2022-12-09T00:22:39.502Z,70.82
2022-12-09T00:25:07.262Z,65.90
2022-12-09T00:27:34.649Z,68.90
2022-12-09T00:30:01.971Z,73.43
2022-12-09T00:32:30.154Z,69.22
2022-12-09T00:35:16.366Z,75.78
2022-12-09T00:37:43.887Z,72.75
2022-12-09T00:40:11.961Z,75.47
2022-12-09T00:42:39.264Z,67.13
2022-12-09T00:45:08.003Z,66.93
2022-12-09T00:47:35.704Z,66.88
2022-12-09T00:50:04.177Z,65.75
2022-12-09T00:52:32.196Z,60.05
2022-12-09T00:54:59.682Z,63.38
2022-12-09T00:57:27.154Z,65.15
2022-12-09T00:59:54.369Z,62.30
2022-12-09T01:02:21.977Z,60.97
2022-12-09T01:04:52.191Z,61.30
2022-12-09T01:07:19.539Z,62.75
2022-12-09T01:09:47.121Z,61.13
2022-12-09T01:12:14.297Z,62.33
2022-12-09T01:14:41.621Z,57.08
2022-12-09T01:17:09.370Z,60.00
2022-12-09T01:19:36.926Z,65.53
2022-12-09T01:22:04.108Z,61.60
2022-12-09T01:24:31.307Z,61.25
2022-12-09T01:26:58.572Z,69.43
2022-12-09T01:29:25.924Z,78.65
2022-12-09T01:31:55.326Z,74.00
2022-12-09T01:34:22.760Z,70.20
2022-12-09T01:36:51.175Z,61.63
2022-12-09T01:39:18.598Z,61.05
2022-12-09T01:41:46.047Z,62.30
2022-12-09T01:44:23.800Z,70.25
2022-12-09T01:46:55.901Z,63.15
2022-12-09T01:49:39.149Z,64.97
2022-12-09T01:52:13.590Z,65.63
2022-12-09T01:54:43.869Z,56.20
2022-12-09T01:57:11.490Z,64.38
2022-12-09T01:59:39.633Z,60.10
2022-12-09T02:02:12.157Z,64.97
2022-12-09T02:04:42.288Z,55.13
2022-12-09T02:07:11.783Z,62.90
2022-12-09T02:09:40.114Z,58.55
2022-12-09T02:12:22.081Z,65.25
2022-12-09T02:15:15.628Z,63.60
2022-12-09T02:18:01.041Z,58.40
2022-12-09T02:20:48.428Z,59.15
2022-12-09T02:23:18.794Z,64.55
2022-12-09T02:25:49.677Z,63.03
2022-12-09T02:28:42.097Z,75.47
2022-12-09T02:31:27.307Z,63.30
2022-12-09T02:34:13.656Z,63.75
2022-12-09T02:37:12.075Z,61.72
2022-12-09T02:39:56.671Z,55.70
2022-12-09T02:42:31.300Z,71.78
2022-12-09T02:45:07.563Z,68.07
2022-12-09T02:47:43.309Z,63.08
2022-12-09T02:50:17.976Z,60.45
2022-12-09T02:52:48.425Z,65.50
2022-12-09T02:55:18.554Z,70.90
2022-12-09T02:57:51.261Z,59.45
2022-12-09T03:00:20.549Z,59.92
2022-12-09T03:02:50.481Z,55.65
2022-12-09T03:05:34.360Z,64.70
2022-12-09T03:08:23.413Z,65.75
2022-12-09T03:11:04.578Z,59.90
2022-12-09T03:13:35.112Z,64.30
2022-12-09T03:16:13.370Z,62.35
2022-12-09T03:18:45.236Z,65.10
2022-12-09T03:21:17.164Z,58.78
2022-12-09T03:23:46.823Z,56.42
2022-12-09T03:26:17.306Z,64.32
2022-12-09T03:28:49.245Z,61.22
2022-12-09T03:31:22.385Z,56.72
2022-12-09T03:33:53.965Z,54.03
2022-12-09T03:36:23.890Z,59.50
2022-12-09T03:38:53.882Z,53.15
2022-12-09T03:41:30.688Z,52.38
2022-12-09T03:44:11.921Z,57.63
2022-12-09T03:46:39.677Z,53.53
2022-12-09T03:49:07.453Z,52.35
2022-12-09T03:51:44.653Z,62.88
2022-12-09T03:54:15.142Z,55.55
2022-12-09T03:56:47.493Z,60.40
2022-12-09T03:59:16.205Z,61.90
2022-12-09T04:01:45.361Z,53.83
2022-12-09T04:04:14.544Z,63.50
2022-12-09T04:06:42.313Z,62.22
2022-12-09T04:09:12.118Z,53.58
2022-12-09T04:11:39.374Z,54.35
2022-12-09T04:14:11.935Z,57.13
2022-12-09T04:16:42.598Z,58.20
2022-12-09T04:19:10.261Z,55.97
2022-12-09T04:21:37.895Z,59.22
2022-12-09T04:24:05.677Z,66.25
2022-12-09T04:26:34.909Z,61.42
2022-12-09T04:29:02.473Z,62.40
2022-12-09T04:31:29.947Z,61.20
2022-12-09T04:33:57.430Z,70.63
2022-12-09T04:36:24.608Z,71.50
2022-12-09T04:38:51.800Z,62.83
2022-12-09T04:41:19.175Z,51.15
2022-12-09T04:43:46.903Z,61.63
2022-12-09T04:46:16.434Z,52.78
2022-12-09T04:48:45.138Z,55.53
2022-12-09T04:51:14.877Z,73.30
2022-12-09T04:53:42.639Z,61.05
2022-12-09T04:56:19.417Z,75.70
2022-12-09T04:58:47.108Z,65.70
2022-12-09T05:01:18.443Z,61.33
2022-12-09T05:03:53.234Z,58.80
2022-12-09T05:06:22.119Z,67.25
2022-12-09T05:08:50.617Z,72.68
2022-12-09T05:11:20.072Z,78.22
2022-12-09T05:13:48.080Z,71.72
2022-12-09T05:16:17.781Z,68.20
2022-12-09T05:18:46.629Z,66.13
2022-12-09T05:21:17.224Z,62.75
2022-12-09T05:23:45.211Z,76.60
2022-12-09T05:26:16.703Z,70.13
2022-12-09T05:28:44.314Z,64.47
2022-12-09T05:31:17.978Z,291.77
2022-12-09T05:33:46.856Z,542.65
2022-12-09T05:36:16.420Z,177.90
2022-12-09T05:38:44.567Z,59.90
2022-12-09T05:41:12.088Z,51.03
2022-12-09T05:43:40.180Z,49.17
2022-12-09T05:46:07.974Z,66.85
2022-12-09T05:48:36.408Z,74.82
2022-12-09T05:51:17.252Z,59.25
2022-12-09T05:53:44.599Z,55.67
2022-12-09T05:56:17.250Z,65.10
2022-12-09T05:58:45.132Z,64.73
2022-12-09T06:01:12.562Z,57.15
2022-12-09T06:03:40.146Z,61.85
2022-12-09T06:06:14.686Z,57.33
2022-12-09T06:08:45.106Z,56.60
2022-12-09T06:11:15.572Z,51.63
2022-12-09T06:13:44.198Z,368.65
2022-12-09T06:16:12.072Z,255.15
2022-12-09T06:18:39.620Z,238.30
2022-12-09T06:21:09.348Z,75.20
2022-12-09T06:23:38.480Z,55.63
2022-12-09T06:26:06.473Z,51.65
2022-12-09T06:28:34.704Z,52.75
2022-12-09T06:31:02.021Z,55.72
2022-12-09T06:33:53.683Z,54.63
2022-12-09T06:36:16.979Z,49.90
2022-12-09T06:38:45.016Z,43.90
2022-12-09T06:41:14.445Z,52.88
2022-12-09T06:43:42.613Z,53.88
2022-12-09T06:46:15.646Z,49.67
2022-12-09T06:48:43.795Z,39.55
2022-12-09T06:51:11.970Z,47.72
2022-12-09T06:53:39.284Z,49.33
2022-12-09T06:56:12.173Z,52.80
2022-12-09T06:58:43.117Z,49.95
2022-12-09T07:01:20.156Z,46.45
2022-12-09T07:03:50.363Z,52.15
2022-12-09T07:06:37.322Z,47.80
2022-12-09T07:09:14.764Z,53.95
2022-12-09T07:11:43.255Z,47.70
2022-12-09T07:14:11.493Z,48.53
2022-12-09T07:16:39.922Z,43.42
2022-12-09T07:19:08.220Z,43.38
2022-12-09T07:21:36.768Z,47.33
2022-12-09T07:24:04.597Z,44.92
2022-12-09T07:26:32.990Z,49.35
2022-12-09T07:29:07.393Z,44.97
2022-12-09T07:31:35.761Z,48.05
2022-12-09T07:34:04.896Z,43.50
2022-12-09T07:36:34.416Z,41.38
2022-12-09T07:39:14.058Z,44.45
2022-12-09T07:41:42.086Z,43.28
2022-12-09T07:44:11.370Z,41.20
2022-12-09T07:46:39.685Z,45.38
2022-12-09T07:49:07.397Z,51.22
2022-12-09T07:51:35.539Z,52.13
2022-12-09T07:54:03.439Z,65.93
2022-12-09T07:56:30.939Z,41.92
2022-12-09T07:58:58.877Z,53.78
2022-12-09T08:01:29.365Z,50.15
2022-12-09T08:03:58.189Z,66.07
2022-12-09T08:06:28.485Z,61.05
2022-12-09T08:09:05.081Z,48.08
2022-12-09T08:11:34.116Z,58.83
2022-12-09T08:14:11.399Z,141.88
2022-12-09T08:16:42.444Z,176.65
2022-12-09T08:19:12.323Z,116.93
2022-12-09T08:21:40.770Z,122.55
2022-12-09T08:24:11.111Z,61.47
2022-12-09T08:26:40.201Z,56.97
2022-12-09T08:29:09.973Z,101.88
2022-12-09T08:31:41.555Z,96.38
2022-12-09T08:39:06.994Z,54.40
2022-12-09T08:41:37.842Z,58.88
2022-12-09T08:44:15.211Z,82.28
2022-12-09T08:46:47.560Z,180.93
2022-12-09T08:49:20.313Z,210.55
2022-12-09T08:51:49.569Z,94.40
2022-12-09T08:54:17.362Z,102.18
2022-12-09T08:56:50.060Z,75.70
2022-12-09T08:59:18.586Z,309.40
2022-12-09T09:01:46.760Z,129.52
2022-12-09T09:04:17.359Z,87.13
2022-12-09T09:06:48.615Z,79.18
2022-12-09T09:09:16.856Z,112.72
2022-12-09T09:11:45.105Z,165.18
2022-12-09T09:14:14.887Z,140.75
2022-12-09T09:16:45.099Z,162.27
2022-12-09T09:19:22.665Z,80.72
2022-12-09T09:21:51.209Z,207.43
2022-12-09T09:24:21.641Z,209.50
2022-12-09T09:26:51.142Z,102.05
2022-12-09T09:29:21.220Z,67.00
2022-12-09T09:31:50.500Z,86.47
2022-12-09T09:34:19.349Z,69.20
2022-12-09T09:36:48.464Z,150.10
2022-12-09T09:39:16.023Z,211.45
2022-12-09T09:42:06.186Z,237.18
2022-12-09T09:44:48.475Z,244.10
2022-12-09T09:47:39.145Z,409.92
2022-12-09T09:50:25.410Z,154.48
2022-12-09T09:52:55.327Z,169.75
2022-12-09T09:55:42.538Z,347.63
2022-12-09T09:58:22.994Z,365.05
2022-12-09T10:01:04.289Z,470.98
2022-12-09T10:03:55.448Z,86.43
2022-12-09T10:06:23.947Z,170.98
2022-12-09T10:08:59.558Z,207.93
2022-12-09T10:11:49.599Z,92.93
2022-12-09T10:14:23.596Z,172.77
2022-12-09T10:17:11.517Z,269.10
2022-12-09T10:19:45.319Z,165.95
2022-12-09T10:22:17.199Z,155.20
2022-12-09T10:24:51.120Z,85.88
2022-12-09T10:27:57.492Z,180.95
2022-12-09T10:30:28.226Z,107.18
2022-12-09T10:32:58.910Z,91.20
2022-12-09T10:35:29.808Z,129.23
2022-12-09T10:38:08.296Z,126.13
2022-12-09T10:40:46.975Z,220.27
2022-12-09T10:43:41.189Z,151.20
2022-12-09T10:46:20.556Z,100.13
2022-12-09T10:48:48.990Z,97.13
2022-12-09T10:51:21.696Z,75.32
2022-12-09T10:53:55.934Z,76.13
2022-12-09T10:56:27.349Z,70.13
2022-12-09T10:59:13.707Z,60.88
2022-12-09T11:01:55.948Z,56.97
2022-12-09T11:04:28.599Z,52.85
2022-12-09T11:07:05.400Z,62.90
2022-12-09T11:09:36.588Z,56.03
2022-12-09T11:12:07.010Z,63.28
2022-12-09T11:14:39.039Z,70.32
2022-12-09T11:17:20.237Z,60.80
2022-12-09T11:19:54.282Z,64.68
2022-12-09T11:22:39.548Z,66.63
2022-12-09T11:25:13.994Z,62.40
2022-12-09T11:27:42.749Z,57.15
2022-12-09T11:30:25.839Z,57.20
2022-12-09T11:32:53.930Z,66.13
2022-12-09T11:35:30.299Z,57.05
2022-12-09T11:38:01.076Z,51.65
2022-12-09T11:40:29.696Z,45.88
2022-12-09T11:42:57.829Z,53.80
2022-12-09T11:45:38.789Z,46.35
2022-12-09T11:48:35.067Z,47.55
2022-12-09T11:51:07.048Z,48.70
2022-12-09T11:53:40.985Z,51.60
2022-12-09T11:56:18.382Z,53.05
2022-12-09T11:58:55.858Z,55.17
2022-12-09T12:01:57.037Z,55.67
2022-12-09T12:04:37.888Z,74.60
2022-12-09T12:07:22.023Z,61.67
2022-12-09T12:09:57.885Z,82.60
2022-12-09T12:12:30.954Z,69.05
2022-12-09T12:15:10.502Z,60.70
2022-12-09T12:17:43.647Z,64.43
2022-12-09T12:20:14.933Z,86.00
2022-12-09T12:23:00.952Z,123.22
2022-12-09T12:25:37.222Z,67.55
2022-12-09T12:28:04.369Z,56.55
2022-12-09T12:30:41.683Z,56.47
2022-12-09T12:36:36.362Z,53.95
2022-12-09T12:39:44.935Z,55.35
2022-12-09T12:42:37.304Z,56.75
2022-12-09T12:45:51.652Z,73.28
2022-12-09T12:48:33.393Z,55.00
2022-12-09T12:51:21.081Z,62.85
2022-12-09T12:54:11.563Z,68.35
2022-12-09T12:56:58.131Z,58.78
2022-12-09T12:59:57.317Z,63.90
2022-12-09T13:02:46.650Z,62.40
2022-12-09T13:05:21.933Z,57.13
2022-12-09T13:08:07.484Z,71.25
2022-12-09T13:10:39.943Z,65.32
2022-12-09T13:13:18.730Z,55.60
2022-12-09T13:15:51.785Z,73.43
2022-12-09T13:18:27.345Z,72.85
2022-12-09T13:21:01.786Z,65.15
2022-12-09T13:23:54.994Z,101.82
2022-12-09T13:26:58.029Z,98.50
2022-12-09T13:29:30.284Z,168.40
2022-12-09T13:32:12.711Z,127.07
2022-12-09T13:35:03.608Z,100.55
2022-12-09T13:37:33.940Z,119.25
2022-12-09T13:40:02.998Z,111.75
2022-12-09T13:42:49.271Z,92.65
2022-12-09T13:45:21.556Z,85.22
2022-12-09T13:47:48.751Z,98.75
2022-12-09T13:50:36.399Z,89.13
2022-12-09T13:53:20.981Z,89.45
2022-12-09T13:55:56.259Z,74.15
2022-12-09T13:58:38.378Z,82.20
2022-12-09T14:01:48.532Z,67.00
2022-12-09T14:04:59.169Z,72.50
2022-12-09T14:07:32.231Z,74.18
2022-12-09T14:10:00.734Z,62.65
2022-12-09T14:12:28.622Z,63.72
2022-12-09T14:15:01.751Z,62.10
2022-12-09T14:17:38.213Z,67.82
2022-12-09T14:20:33.421Z,71.18
2022-12-09T14:23:09.838Z,65.95
2022-12-09T14:25:36.950Z,71.13
2022-12-09T14:28:26.152Z,74.00
2022-12-09T14:31:02.046Z,61.72
2022-12-09T14:33:36.956Z,69.63
2022-12-09T14:36:13.193Z,72.40
2022-12-09T14:39:24.668Z,58.28
2022-12-09T14:41:59.356Z,62.78
2022-12-09T14:44:38.503Z,67.63
2022-12-09T14:47:28.388Z,73.45
2022-12-09T14:50:04.023Z,65.30
2022-12-09T14:52:33.293Z,90.55
2022-12-09T14:55:04.845Z,74.30
2022-12-09T14:57:43.568Z,74.45
2022-12-09T15:00:40.900Z,88.75
2022-12-09T15:03:34.333Z,93.70
2022-12-09T15:06:27.114Z,72.50
2022-12-09T15:08:59.430Z,71.15
2022-12-09T15:11:31.709Z,79.80
2022-12-09T15:14:22.640Z,92.50
2022-12-09T15:16:51.024Z,70.80
2022-12-09T15:19:58.041Z,71.95
2022-12-09T15:22:22.498Z,210.15
2022-12-09T15:24:51.537Z,120.03
2022-12-09T15:27:22.988Z,105.75
2022-12-09T15:29:51.216Z,111.53
2022-12-09T15:32:28.496Z,73.90
2022-12-09T15:34:56.503Z,62.38
2022-12-09T15:37:28.899Z,66.53
2022-12-09T15:40:09.085Z,69.32
2022-12-09T15:42:40.676Z,101.22
2022-12-09T15:45:12.079Z,95.20
2022-12-09T15:47:50.774Z,95.78
2022-12-09T15:50:25.631Z,98.72
2022-12-09T15:53:12.033Z,79.25
2022-12-09T15:55:55.820Z,67.25
2022-12-09T15:58:34.408Z,108.40
2022-12-09T16:01:03.441Z,83.97
2022-12-09T16:03:34.167Z,87.63
2022-12-09T16:06:04.465Z,78.85
2022-12-09T16:08:41.916Z,119.55
2022-12-09T16:11:10.306Z,93.78
2022-12-09T16:13:57.656Z,83.88
2022-12-09T16:16:50.204Z,108.30
2022-12-09T16:19:24.593Z,116.97
2022-12-09T16:21:58.496Z,117.15
2022-12-09T16:24:38.948Z,133.18
2022-12-09T16:27:26.445Z,86.22
2022-12-09T16:29:57.162Z,130.10
2022-12-09T16:32:34.445Z,115.57
2022-12-09T16:35:11.138Z,85.18
2022-12-09T16:38:01.282Z,79.95
2022-12-09T16:40:32.733Z,71.28
2022-12-09T16:43:27.832Z,53.17
2022-12-09T16:46:14.838Z,63.83
2022-12-09T16:48:42.745Z,70.53
2022-12-09T16:51:13.006Z,68.30
2022-12-09T16:53:49.738Z,72.70
2022-12-09T16:56:28.288Z,57.28
2022-12-09T16:58:56.738Z,62.85
2022-12-09T17:01:28.026Z,48.22
2022-12-09T17:04:04.232Z,51.35
2022-12-09T17:06:32.154Z,54.72
2022-12-09T17:08:59.615Z,108.72
2022-12-09T17:11:26.842Z,93.07
2022-12-09T17:13:54.236Z,89.15
2022-12-09T17:16:24.785Z,65.93
2022-12-09T17:18:52.128Z,50.95
2022-12-09T17:21:22.522Z,56.00
2022-12-09T17:23:50.357Z,58.08
2022-12-09T17:26:19.713Z,61.50
2022-12-09T17:28:47.997Z,63.60
2022-12-09T17:31:20.995Z,60.25
2022-12-09T17:33:49.029Z,63.10
2022-12-09T17:36:17.752Z,57.90
2022-12-09T17:38:45.171Z,64.85
2022-12-09T17:41:16.139Z,54.25
2022-12-09T17:43:44.019Z,70.60
2022-12-09T17:46:12.986Z,82.68
2022-12-09T17:48:42.043Z,72.18
2022-12-09T17:51:12.793Z,53.80
2022-12-09T17:53:41.731Z,54.22
2022-12-09T17:56:18.299Z,62.75
2022-12-09T17:58:46.038Z,83.03
2022-12-09T18:01:21.272Z,53.28
2022-12-09T18:03:58.444Z,54.90
2022-12-09T18:06:30.620Z,79.13
2022-12-09T18:08:57.933Z,73.15
2022-12-09T18:11:25.134Z,66.22
2022-12-09T18:13:53.205Z,91.50
2022-12-09T18:16:20.775Z,106.13
2022-12-09T18:18:48.773Z,78.82
2022-12-09T18:21:16.648Z,82.50
2022-12-09T18:23:44.315Z,73.32
2022-12-09T18:26:14.500Z,77.15
2022-12-09T18:28:42.419Z,70.97
2022-12-09T18:31:12.998Z,82.40
2022-12-09T18:33:41.437Z,98.60
2022-12-09T18:36:17.391Z,81.95
2022-12-09T18:38:44.638Z,63.05
2022-12-09T18:41:13.697Z,54.90
2022-12-09T18:43:43.479Z,114.32
2022-12-09T18:46:18.443Z,99.55
2022-12-09T18:48:49.906Z,76.28
2022-12-09T18:51:19.880Z,70.43
2022-12-09T18:53:48.240Z,76.00
2022-12-09T18:56:16.982Z,74.85
2022-12-09T18:59:05.473Z,72.47
2022-12-09T19:01:32.812Z,78.07
2022-12-09T19:04:02.194Z,62.25
2022-12-09T19:06:35.134Z,58.60
2022-12-09T19:09:05.674Z,70.78
2022-12-09T19:11:36.073Z,72.10
2022-12-09T19:14:05.827Z,75.05
2022-12-09T19:16:33.575Z,76.82
2022-12-09T19:19:07.234Z,72.95
2022-12-09T19:21:36.617Z,68.40
2022-12-09T19:24:04.091Z,68.00
2022-12-09T19:26:33.715Z,65.38
2022-12-09T19:29:07.361Z,76.22
2022-12-09T19:31:37.261Z,129.63
2022-12-09T19:34:26.789Z,83.15
2022-12-09T19:36:56.662Z,93.57
2022-12-09T19:39:26.884Z,93.25
2022-12-09T19:41:54.049Z,79.57
2022-12-09T19:44:44.183Z,91.22
2022-12-09T19:47:11.770Z,98.55
2022-12-09T19:49:41.064Z,100.30
2022-12-09T19:52:08.433Z,96.05
2022-12-09T19:54:35.852Z,102.78
2022-12-09T19:57:03.235Z,117.30
2022-12-09T19:59:31.137Z,114.28
2022-12-09T20:01:58.425Z,96.55
2022-12-09T20:07:14.158Z,99.43
2022-12-09T20:09:41.724Z,74.53
2022-12-09T20:12:09.009Z,80.15
2022-12-09T20:14:36.216Z,80.68
2022-12-09T20:17:03.819Z,83.60
2022-12-09T20:19:31.684Z,94.82
2022-12-09T20:21:59.243Z,84.07
2022-12-09T20:24:27.540Z,115.28
2022-12-09T20:26:56.062Z,107.85
2022-12-09T20:29:23.455Z,99.13
2022-12-09T20:31:50.629Z,113.00
2022-12-09T20:34:18.178Z,76.97
2022-12-09T20:36:46.480Z,82.15
2022-12-09T20:39:19.987Z,106.82
2022-12-09T20:41:48.713Z,81.28
2022-12-09T20:44:17.487Z,84.80
2022-12-09T20:46:47.117Z,91.65
2022-12-09T20:49:14.732Z,78.65
2022-12-09T20:51:45.644Z,86.90
2022-12-09T20:54:13.424Z,71.68
2022-12-09T20:56:41.388Z,72.53
2022-12-09T20:59:10.702Z,83.13
2022-12-09T21:01:38.455Z,78.03
2022-12-09T21:04:06.889Z,84.30
2022-12-09T21:06:36.858Z,90.22
2022-12-09T21:09:18.686Z,86.68
2022-12-09T21:11:47.192Z,96.05
2022-12-09T21:14:18.254Z,79.63
2022-12-09T21:16:52.873Z,78.88
2022-12-09T21:19:30.140Z,70.07
2022-12-09T21:21:57.401Z,76.88
2022-12-09T21:24:24.797Z,80.32
2022-12-09T21:26:57.321Z,77.60
2022-12-09T21:29:31.260Z,84.53
2022-12-09T21:32:00.389Z,315.02
2022-12-09T21:34:27.689Z,220.73
2022-12-09T21:36:54.948Z,113.38
2022-12-09T21:39:22.201Z,77.63
2022-12-09T21:41:49.918Z,64.43
2022-12-09T21:44:18.998Z,71.10
2022-12-09T21:46:47.341Z,74.65
2022-12-09T21:49:14.893Z,54.33
2022-12-09T21:51:42.807Z,47.95
2022-12-09T21:54:10.981Z,52.15
2022-12-09T21:56:38.253Z,53.70
2022-12-09T21:59:07.320Z,56.70
2022-12-09T22:01:40.570Z,56.83
2022-12-09T22:04:11.380Z,64.43
2022-12-09T22:06:39.268Z,52.78
2022-12-09T22:09:07.487Z,59.63
2022-12-09T22:11:37.205Z,59.05
2022-12-09T22:14:05.979Z,55.42
2022-12-09T22:16:37.245Z,54.65
2022-12-09T22:19:06.430Z,57.47
2022-12-09T22:21:34.484Z,66.90
2022-12-09T22:24:04.230Z,55.63
2022-12-09T22:26:32.283Z,56.15
2022-12-09T22:29:01.748Z,56.65
2022-12-09T22:31:31.906Z,54.47
2022-12-09T22:34:13.795Z,55.47
2022-12-09T22:36:41.558Z,53.40
2022-12-09T22:39:12.078Z,48.33
2022-12-09T22:41:39.351Z,54.75
2022-12-09T22:44:06.457Z,56.10
2022-12-09T22:46:34.376Z,56.75
2022-12-09T22:49:05.010Z,67.40
2022-12-09T22:51:35.981Z,75.43
2022-12-09T22:54:06.399Z,70.18
2022-12-09T22:56:34.198Z,71.43
2022-12-09T22:59:01.366Z,69.20
2022-12-09T23:01:32.102Z,60.90
2022-12-09T23:04:00.629Z,70.72
2022-12-09T23:06:29.210Z,64.70
2022-12-09T23:08:56.806Z,66.00
2022-12-09T23:11:26.249Z,66.93
2022-12-09T23:13:53.953Z,66.85
2022-12-09T23:16:24.351Z,70.22
2022-12-09T23:18:52.457Z,73.72
2022-12-09T23:21:22.671Z,81.50
2022-12-09T23:23:56.201Z,74.65
2022-12-09T23:28:56.343Z,86.38
2022-12-09T23:31:27.073Z,75.22
2022-12-09T23:33:54.952Z,80.43
2022-12-09T23:36:25.884Z,81.53
2022-12-09T23:38:53.820Z,89.38
2022-12-09T23:41:22.497Z,87.57
2022-12-09T23:43:50.194Z,88.85
2022-12-09T23:46:20.500Z,102.88
2022-12-09T23:48:49.224Z,88.25
2022-12-09T23:51:25.461Z,87.63
2022-12-09T23:53:55.794Z,85.28
2022-12-09T23:56:25.870Z,78.18
2022-12-09T23:58:57.851Z,90.20
